Terminal Aerodrome Forecast
Issued by NWS

Home | Current Version | Previous Version | Text Only | Print | Product List | Glossary On
Versions: 1 2 3 4 5 6 7 8 9 10 11 12 13 14 15 16 17 18 19
000
FTUS41 KILN 311100
TAFLUK
TAF
KLUK 311137Z 3112/0112 21004KT P6SM OVC050
     FM311600 29010KT P6SM -SHRA OVC025
     FM311900 31012G20KT P6SM -SHRA OVC015
     FM010000 32016G26KT P6SM VCSH OVC012
     FM010400 33017G27KT 5SM -RASN BR OVC009=

USA.gov is the U.S. government's official web portal to all federal, state and local government web resources and services.